Time;durP1;ratioP1;P1;durP2;ratioP2;P2;SDS_P1;SDS_P2;PMS_P1;PMS_P2;Temp;Humidity;BMP_temperature;BMP_pressure;BME280_temperature;BME280_humidity;BME280_pressure;Samples;Min_cycle;Max_cycle;Signal;HPM_P1;HPM_P2
2023/04/22 00:00:44;;;;;;;7.78;6.03;;;14.70;1.00;;;;;;5034849;28;20088;-48
2023/04/22 00:03:09;;;;;;;7.85;6.00;;;14.70;1.00;;;;;;5034784;28;20086;-53
2023/04/22 00:05:36;;;;;;;7.38;5.88;;;14.70;1.00;;;;;;5035080;28;20029;-51
2023/04/22 00:08:02;;;;;;;6.75;5.68;;;14.70;1.00;;;;;;5034929;28;20041;-50
2023/04/22 00:10:28;;;;;;;8.57;6.20;;;14.70;1.00;;;;;;5021112;28;20030;-52
2023/04/22 00:12:54;;;;;;;7.07;5.72;;;14.70;1.00;;;;;;5034628;28;20091;-50
2023/04/22 00:15:20;;;;;;;7.35;5.85;;;14.70;1.00;;;;;;5034503;28;20021;-50
2023/04/22 00:17:49;;;;;;;6.25;5.18;;;14.70;1.00;;;;;;5034488;28;20033;-50
2023/04/22 00:20:15;;;;;;;9.38;5.90;;;14.70;1.00;;;;;;5034607;28;20026;-49
2023/04/22 00:22:41;;;;;;;8.52;5.82;;;14.70;1.00;;;;;;5032968;28;20030;-50
2023/04/22 00:25:09;;;;;;;6.55;5.82;;;14.60;1.00;;;;;;5032455;28;20091;-49
2023/04/22 00:27:35;;;;;;;8.32;5.70;;;14.60;1.00;;;;;;5034545;28;20029;-51
2023/04/22 00:30:01;;;;;;;6.68;5.35;;;14.60;1.00;;;;;;5034631;28;20339;-50
2023/04/22 00:32:27;;;;;;;6.05;5.43;;;14.60;1.00;;;;;;5032878;28;20041;-50
2023/04/22 00:34:52;;;;;;;6.00;5.28;;;14.60;1.00;;;;;;5034013;28;20045;-48
2023/04/22 00:37:18;;;;;;;5.90;5.30;;;14.60;1.00;;;;;;5034434;28;20018;-51
2023/04/22 00:39:43;;;;;;;7.30;5.50;;;14.60;1.00;;;;;;5034123;28;20482;-52
2023/04/22 00:42:10;;;;;;;8.30;5.90;;;14.60;1.00;;;;;;5033976;28;20063;-51
2023/04/22 00:44:35;;;;;;;6.38;5.75;;;14.60;1.00;;;;;;5033880;28;20025;-48
2023/04/22 00:47:01;;;;;;;7.38;5.38;;;14.60;1.00;;;;;;5034259;28;20040;-50
2023/04/22 00:49:27;;;;;;;6.45;5.07;;;14.50;1.00;;;;;;5033661;28;20523;-51
2023/04/22 00:51:53;;;;;;;6.95;5.10;;;14.60;1.00;;;;;;5033147;28;20546;-53
2023/04/22 00:54:19;;;;;;;5.78;5.05;;;14.60;1.00;;;;;;5033627;28;20025;-50
2023/04/22 00:56:45;;;;;;;8.02;5.63;;;14.50;1.00;;;;;;5032459;28;20026;-51
2023/04/22 00:59:11;;;;;;;5.53;5.03;;;14.50;1.00;;;;;;5034016;28;20021;-51
2023/04/22 01:01:37;;;;;;;6.50;4.72;;;14.60;1.00;;;;;;5033577;28;20065;-50
2023/04/22 01:04:03;;;;;;;7.03;4.95;;;14.50;1.00;;;;;;5033633;28;20017;-50
2023/04/22 01:06:31;;;;;;;5.63;5.03;;;14.40;1.00;;;;;;5033570;28;20021;-51
2023/04/22 01:08:57;;;;;;;5.47;4.90;;;14.50;1.00;;;;;;5033775;28;20429;-52
2023/04/22 01:11:26;;;;;;;8.73;5.43;;;14.50;1.00;;;;;;5033739;28;20376;-50
2023/04/22 01:13:52;;;;;;;8.10;5.22;;;14.50;1.00;;;;;;5033344;28;20503;-53
2023/04/22 01:16:18;;;;;;;5.68;5.13;;;14.40;1.00;;;;;;5032119;28;20064;-54
2023/04/22 01:18:43;;;;;;;7.78;5.28;;;14.40;1.00;;;;;;5033270;28;20387;-52
2023/04/22 01:21:10;;;;;;;6.80;4.93;;;14.40;1.00;;;;;;5033461;28;20030;-52
2023/04/22 01:23:37;;;;;;;5.20;4.70;;;14.40;1.00;;;;;;5033192;28;20066;-52
2023/04/22 01:26:03;;;;;;;5.85;5.20;;;14.40;1.00;;;;;;5032579;28;20017;-48
2023/04/22 01:28:29;;;;;;;5.63;5.05;;;14.40;1.00;;;;;;5033186;28;20445;-50
2023/04/22 01:30:55;;;;;;;5.47;4.93;;;14.30;1.00;;;;;;5033186;28;20142;-49
2023/04/22 01:33:21;;;;;;;6.18;5.07;;;14.30;1.00;;;;;;5033229;28;20052;-49
2023/04/22 01:35:48;;;;;;;5.30;4.80;;;14.30;1.00;;;;;;5030050;28;20132;-50
2023/04/22 01:38:14;;;;;;;4.97;4.43;;;14.40;1.00;;;;;;5033361;28;20557;-49
2023/04/22 01:40:40;;;;;;;7.05;5.30;;;14.40;1.00;;;;;;5037593;28;20029;-49
2023/04/22 01:43:05;;;;;;;6.40;5.13;;;14.30;1.00;;;;;;5044674;28;20033;-53
2023/04/22 01:45:31;;;;;;;8.70;5.07;;;14.30;1.00;;;;;;5031191;28;20555;-50
2023/04/22 01:47:57;;;;;;;7.32;5.30;;;14.20;1.00;;;;;;5032734;28;20039;-49
2023/04/22 01:50:23;;;;;;;6.53;5.15;;;14.30;1.00;;;;;;5032919;28;20053;-49
2023/04/22 01:52:49;;;;;;;7.53;5.25;;;14.20;1.00;;;;;;5031226;28;20407;-50
2023/04/22 01:55:15;;;;;;;5.70;4.38;;;14.30;1.00;;;;;;5032768;28;20032;-52
2023/04/22 01:57:41;;;;;;;5.60;4.95;;;14.20;1.00;;;;;;5047658;28;20030;-50
2023/04/22 02:00:08;;;;;;;6.00;4.85;;;14.20;1.00;;;;;;5031082;28;20483;-50
2023/04/22 02:02:34;;;;;;;5.90;4.13;;;14.20;1.00;;;;;;5033084;28;20056;-50
2023/04/22 02:05:00;;;;;;;5.60;4.95;;;14.20;1.00;;;;;;5042439;28;20394;-49
2023/04/22 02:07:25;;;;;;;5.50;4.82;;;14.20;1.00;;;;;;5035983;28;20045;-49
2023/04/22 02:09:51;;;;;;;5.90;4.78;;;14.10;1.00;;;;;;5033220;28;20028;-50
2023/04/22 02:12:17;;;;;;;6.50;4.43;;;14.10;1.00;;;;;;5033184;28;20473;-50
2023/04/22 02:14:42;;;;;;;5.32;4.50;;;14.10;1.00;;;;;;5032711;28;20075;-54
2023/04/22 02:17:27;;;;;;;7.63;5.68;;;14.10;1.00;;;;;;5031559;28;20021;-54
2023/04/22 02:19:53;;;;;;;6.32;4.95;;;14.10;1.00;;;;;;5019153;28;20501;-51
2023/04/22 02:22:18;;;;;;;5.78;5.28;;;14.10;1.00;;;;;;5044367;28;20021;-51
2023/04/22 02:24:45;;;;;;;5.72;5.20;;;14.10;1.00;;;;;;5035041;28;20456;-53
2023/04/22 02:27:10;;;;;;;5.03;4.07;;;14.00;1.00;;;;;;5032701;28;20038;-53
2023/04/22 02:29:36;;;;;;;6.55;5.25;;;14.10;1.00;;;;;;5032574;28;20026;-52
2023/04/22 02:32:02;;;;;;;7.57;4.60;;;14.10;1.00;;;;;;5032917;28;20352;-54
2023/04/22 02:34:27;;;;;;;8.00;4.97;;;14.00;1.00;;;;;;5032346;28;20460;-53
2023/04/22 02:36:53;;;;;;;5.53;4.53;;;14.00;1.00;;;;;;5032567;28;20479;-50
2023/04/22 02:39:19;;;;;;;5.32;4.57;;;14.00;1.00;;;;;;5032575;28;20056;-51
2023/04/22 02:41:44;;;;;;;6.43;5.05;;;13.90;1.00;;;;;;5032508;28;20072;-54
2023/04/22 02:44:10;;;;;;;6.45;5.00;;;14.00;1.00;;;;;;5032457;28;20033;-52
2023/04/22 02:46:35;;;;;;;6.85;4.70;;;14.00;1.00;;;;;;5032330;28;20021;-52
2023/04/22 02:49:01;;;;;;;5.45;4.95;;;13.90;1.00;;;;;;5032816;28;20064;-48
2023/04/22 02:51:27;;;;;;;5.75;4.55;;;13.90;1.00;;;;;;5032533;28;20032;-48
2023/04/22 02:53:52;;;;;;;5.10;4.25;;;13.90;1.00;;;;;;5032416;28;20021;-51
2023/04/22 02:56:19;;;;;;;4.72;4.32;;;13.90;1.00;;;;;;5032416;28;20026;-51
2023/04/22 02:58:46;;;;;;;6.25;4.50;;;13.90;1.00;;;;;;5032554;28;20037;-53
2023/04/22 03:01:12;;;;;;;5.13;4.72;;;13.80;1.00;;;;;;5032417;28;20025;-49
2023/04/22 03:03:37;;;;;;;5.18;4.68;;;13.90;1.00;;;;;;5032300;28;20022;-50
2023/04/22 03:06:03;;;;;;;6.22;4.57;;;13.90;1.00;;;;;;5032284;28;20029;-49
2023/04/22 03:08:29;;;;;;;7.55;5.00;;;13.80;1.00;;;;;;5032231;28;20041;-49
2023/04/22 03:10:54;;;;;;;5.10;4.60;;;13.80;1.00;;;;;;5014474;28;20068;-49
2023/04/22 03:13:21;;;;;;;5.13;4.63;;;13.80;1.00;;;;;;5034529;28;20083;-49
2023/04/22 03:15:46;;;;;;;6.13;4.55;;;13.80;1.00;;;;;;5035762;28;20057;-53
2023/04/22 03:18:12;;;;;;;6.00;4.53;;;13.80;1.00;;;;;;5035775;28;20068;-51
2023/04/22 03:20:38;;;;;;;5.88;5.28;;;13.80;1.00;;;;;;5035624;28;20037;-51
2023/04/22 03:23:03;;;;;;;7.50;4.88;;;13.80;1.00;;;;;;5034328;28;20121;-50
2023/04/22 03:25:29;;;;;;;5.75;4.82;;;13.70;1.00;;;;;;5035649;28;20053;-49
2023/04/22 03:27:57;;;;;;;6.30;5.07;;;13.80;1.00;;;;;;5035668;28;20048;-48
2023/04/22 03:30:23;;;;;;;5.65;5.03;;;13.80;1.00;;;;;;5035613;28;20112;-50
2023/04/22 03:32:49;;;;;;;6.68;5.43;;;13.70;1.00;;;;;;5034139;28;20060;-49
2023/04/22 03:35:15;;;;;;;6.85;4.25;;;13.70;1.00;;;;;;5035377;28;20041;-52
2023/04/22 03:37:40;;;;;;;5.78;4.80;;;13.70;1.00;;;;;;5035311;28;20025;-53
2023/04/22 03:40:06;;;;;;;4.97;4.45;;;13.70;1.00;;;;;;5035348;28;20030;-52
2023/04/22 03:42:35;;;;;;;6.53;5.20;;;13.70;1.00;;;;;;5035357;28;20049;-49
2023/04/22 03:45:01;;;;;;;5.32;4.82;;;13.70;1.00;;;;;;5035103;28;20078;-53
2023/04/22 03:47:27;;;;;;;5.18;4.35;;;13.60;1.00;;;;;;5035045;28;20123;-52
2023/04/22 03:49:52;;;;;;;4.82;4.35;;;13.60;1.00;;;;;;5035008;28;20029;-49
2023/04/22 03:52:18;;;;;;;5.45;4.60;;;13.60;1.00;;;;;;5035139;28;20033;-49
2023/04/22 03:54:43;;;;;;;9.48;4.72;;;13.50;1.00;;;;;;5033667;28;20097;-53
2023/04/22 03:57:09;;;;;;;5.07;4.57;;;13.60;1.00;;;;;;5034871;28;20120;-53
2023/04/22 03:59:35;;;;;;;5.88;4.55;;;13.50;1.00;;;;;;5035237;28;20028;-52
2023/04/22 04:02:00;;;;;;;5.47;4.50;;;13.50;1.00;;;;;;5035161;28;20581;-51
2023/04/22 04:04:28;;;;;;;5.25;4.75;;;13.50;1.00;;;;;;5035141;28;20120;-53
2023/04/22 04:06:54;;;;;;;7.15;4.45;;;13.50;1.00;;;;;;5034784;28;20056;-52
2023/04/22 04:09:20;;;;;;;7.68;4.75;;;13.50;1.00;;;;;;5034956;28;20026;-52
2023/04/22 04:11:45;;;;;;;5.88;4.57;;;13.50;1.00;;;;;;5035006;28;20084;-53
2023/04/22 04:14:11;;;;;;;6.63;4.90;;;13.50;1.00;;;;;;5034861;28;20038;-52
2023/04/22 04:16:37;;;;;;;5.97;4.85;;;13.50;1.00;;;;;;5033387;28;20037;-49
2023/04/22 04:19:03;;;;;;;6.45;4.55;;;13.50;1.00;;;;;;5036351;28;20037;-52
2023/04/22 04:21:28;;;;;;;6.43;4.57;;;13.50;1.00;;;;;;5046805;28;20028;-47
2023/04/22 04:23:55;;;;;;;6.00;4.45;;;13.50;1.00;;;;;;5033979;28;20114;-49
2023/04/22 04:26:20;;;;;;;4.50;4.10;;;13.50;1.00;;;;;;5034440;28;20168;-50
2023/04/22 04:28:48;;;;;;;7.03;5.20;;;13.50;1.00;;;;;;5034277;28;20120;-52
2023/04/22 04:31:13;;;;;;;5.50;4.88;;;13.50;1.00;;;;;;5034459;28;20018;-51
2023/04/22 04:33:39;;;;;;;5.78;4.82;;;13.50;1.00;;;;;;5034353;28;20040;-52
2023/04/22 04:36:07;;;;;;;7.63;4.45;;;13.50;1.00;;;;;;5032823;28;20050;-50
2023/04/22 04:38:33;;;;;;;5.28;4.50;;;13.40;1.00;;;;;;5034627;28;20022;-53
2023/04/22 04:40:59;;;;;;;5.45;4.93;;;13.40;1.00;;;;;;5032881;28;20024;-53
2023/04/22 04:43:25;;;;;;;5.55;4.47;;;13.40;1.00;;;;;;5034232;28;20034;-49
2023/04/22 04:45:51;;;;;;;8.90;5.38;;;13.30;1.00;;;;;;5034276;28;20029;-51
2023/04/22 04:48:19;;;;;;;7.55;6.13;;;13.40;1.00;;;;;;5033909;28;20038;-53
2023/04/22 04:50:44;;;;;;;5.00;4.50;;;13.40;1.00;;;;;;5032680;28;20029;-52
2023/04/22 04:53:12;;;;;;;7.05;5.00;;;13.30;1.00;;;;;;5033947;28;20553;-54
2023/04/22 04:55:38;;;;;;;6.10;4.97;;;13.30;1.00;;;;;;5038972;28;20462;-50
2023/04/22 04:58:04;;;;;;;6.28;4.95;;;13.40;1.00;;;;;;5042816;28;20053;-52
2023/04/22 05:00:30;;;;;;;5.60;4.55;;;13.30;1.00;;;;;;5033813;28;20053;-52
2023/04/22 05:02:55;;;;;;;9.48;5.25;;;13.30;1.00;;;;;;5034135;28;20025;-51
2023/04/22 05:05:21;;;;;;;5.55;5.05;;;13.40;1.00;;;;;;5033863;28;20034;-55
2023/04/22 05:07:47;;;;;;;5.35;4.85;;;13.40;1.00;;;;;;5033633;28;20116;-51
2023/04/22 05:10:13;;;;;;;7.70;5.15;;;13.30;1.00;;;;;;5032385;28;20021;-52
2023/04/22 05:12:39;;;;;;;9.10;5.75;;;13.40;1.00;;;;;;5033592;28;20033;-52
2023/04/22 05:15:05;;;;;;;6.95;5.10;;;13.40;1.00;;;;;;5033804;28;20360;-53
2023/04/22 05:17:31;;;;;;;6.13;5.50;;;13.40;1.00;;;;;;5033786;28;20026;-49
2023/04/22 05:19:57;;;;;;;6.93;5.57;;;13.40;1.00;;;;;;5033807;28;20017;-51
2023/04/22 05:22:23;;;;;;;6.47;5.47;;;13.40;1.00;;;;;;5033632;28;20084;-50
2023/04/22 05:24:48;;;;;;;5.90;5.03;;;13.40;1.00;;;;;;5023044;28;20029;-49
2023/04/22 05:27:14;;;;;;;5.95;5.18;;;13.40;1.00;;;;;;5033440;28;20399;-55
2023/04/22 05:29:40;;;;;;;5.90;4.50;;;13.40;1.00;;;;;;5033288;28;20140;-49
2023/04/22 05:32:07;;;;;;;8.07;5.53;;;13.40;1.00;;;;;;5033387;28;20448;-50
2023/04/22 05:34:34;;;;;;;8.88;5.45;;;13.40;1.00;;;;;;5031182;28;20053;-51
2023/04/22 05:37:02;;;;;;;7.47;5.70;;;13.50;1.00;;;;;;5033293;28;20018;-54
2023/04/22 05:39:27;;;;;;;7.30;5.80;;;13.50;1.00;;;;;;5033207;28;20091;-50
2023/04/22 05:41:53;;;;;;;9.45;6.13;;;13.50;1.00;;;;;;5033393;28;20029;-49
2023/04/22 05:44:19;;;;;;;7.05;5.90;;;13.50;1.00;;;;;;5032294;28;20415;-49
2023/04/22 05:46:45;;;;;;;7.15;5.60;;;13.60;1.00;;;;;;5032916;28;20017;-49
2023/04/22 05:49:11;;;;;;;7.55;6.13;;;13.60;1.00;;;;;;5033068;28;20093;-54
2023/04/22 05:52:02;;;;;;;8.07;5.85;;;13.70;1.00;;;;;;5026813;28;20022;-53
2023/04/22 05:54:28;;;;;;;7.00;6.30;;;13.70;1.00;;;;;;5031535;28;20026;-55
2023/04/22 05:56:54;;;;;;;9.82;6.50;;;13.70;1.00;;;;;;5033180;28;20022;-54
2023/04/22 05:59:20;;;;;;;7.82;6.47;;;13.80;1.00;;;;;;5032957;28;20056;-51
2023/04/22 06:01:46;;;;;;;7.97;6.55;;;13.80;1.00;;;;;;5033101;28;20033;-52
2023/04/22 06:04:11;;;;;;;7.93;6.05;;;13.90;1.00;;;;;;5032678;28;20133;-52
2023/04/22 06:06:38;;;;;;;6.88;6.13;;;13.90;1.00;;;;;;5033115;28;20056;-51
2023/04/22 06:09:06;;;;;;;9.50;7.05;;;14.00;1.00;;;;;;5033056;28;20108;-49
2023/04/22 06:11:32;;;;;;;8.80;7.55;;;14.00;1.00;;;;;;5033038;28;20022;-53
2023/04/22 06:13:58;;;;;;;9.48;6.97;;;14.10;1.00;;;;;;5032755;28;20040;-53
2023/04/22 06:16:23;;;;;;;8.60;7.32;;;14.10;1.00;;;;;;5033090;28;20375;-51
2023/04/22 06:18:49;;;;;;;11.25;6.93;;;14.20;1.00;;;;;;5032955;28;20033;-50
2023/04/22 06:21:15;;;;;;;8.68;7.18;;;14.20;1.00;;;;;;5032631;28;20436;-53
2023/04/22 06:23:41;;;;;;;11.32;7.38;;;14.20;1.00;;;;;;5032649;28;20037;-52
2023/04/22 06:26:07;;;;;;;9.80;7.28;;;14.30;1.00;;;;;;5032747;28;20467;-53
2023/04/22 06:28:32;;;;;;;11.05;7.10;;;14.30;1.00;;;;;;5032822;28;20052;-50
2023/04/22 06:30:58;;;;;;;9.95;7.50;;;14.40;1.00;;;;;;5032702;28;20013;-52
2023/04/22 06:33:24;;;;;;;11.70;8.13;;;14.40;1.00;;;;;;5031421;28;20090;-52
2023/04/22 06:35:50;;;;;;;9.13;8.18;;;14.50;1.00;;;;;;5030954;28;20045;-59
2023/04/22 06:38:15;;;;;;;9.70;8.20;;;14.50;1.00;;;;;;5032364;28;20040;-58
2023/04/22 06:40:41;;;;;;;12.75;8.88;;;14.60;1.00;;;;;;5032541;28;20464;-56
2023/04/22 06:43:06;;;;;;;13.27;8.13;;;14.60;1.00;;;;;;5032399;28;20034;-57
2023/04/22 06:45:32;;;;;;;15.43;8.68;;;14.70;1.00;;;;;;5032651;28;20107;-58
2023/04/22 06:47:58;;;;;;;9.82;8.00;;;14.70;1.00;;;;;;5035973;28;20136;-55
2023/04/22 06:50:24;;;;;;;9.38;7.60;;;14.80;1.00;;;;;;5036339;28;20026;-58
2023/04/22 06:52:49;;;;;;;12.65;9.48;;;14.80;1.00;;;;;;5036396;28;20034;-57
2023/04/22 06:55:15;;;;;;;10.15;8.85;;;14.80;1.00;;;;;;5036182;28;20410;-57
2023/04/22 06:57:41;;;;;;;9.80;7.93;;;14.80;1.00;;;;;;5036155;28;20383;-57
2023/04/22 07:00:09;;;;;;;10.13;9.13;;;14.80;1.00;;;;;;5036150;28;20057;-58
2023/04/22 07:02:35;;;;;;;11.57;8.98;;;14.80;1.00;;;;;;5022367;28;20022;-58
2023/04/22 07:05:01;;;;;;;13.35;9.68;;;14.90;1.00;;;;;;5035995;28;20022;-58
2023/04/22 07:07:27;;;;;;;10.00;8.73;;;14.90;1.00;;;;;;5036071;28;20092;-58
2023/04/22 07:09:52;;;;;;;8.57;7.78;;;14.90;1.00;;;;;;5030696;28;20025;-57
2023/04/22 07:12:22;;;;;;;9.25;8.35;;;15.00;1.00;;;;;;5035948;28;20072;-57
2023/04/22 07:14:48;;;;;;;9.63;8.45;;;15.00;1.00;;;;;;5035921;28;20499;-57
2023/04/22 07:17:14;;;;;;;12.13;8.75;;;15.10;1.00;;;;;;5035915;28;20040;-58
2023/04/22 07:19:40;;;;;;;9.70;8.70;;;15.20;1.00;;;;;;5036029;28;20383;-58
2023/04/22 07:22:05;;;;;;;10.82;7.90;;;15.20;1.00;;;;;;5035621;28;20025;-58
2023/04/22 07:24:31;;;;;;;11.35;8.00;;;15.20;1.00;;;;;;5035734;28;20029;-56
2023/04/22 07:26:57;;;;;;;9.35;7.55;;;15.30;1.00;;;;;;5035766;28;20508;-56
2023/04/22 07:29:23;;;;;;;9.02;8.07;;;15.20;1.00;;;;;;5035539;28;20037;-58
2023/04/22 07:31:48;;;;;;;10.13;7.45;;;15.30;1.00;;;;;;5035860;28;20164;-57
2023/04/22 07:34:14;;;;;;;15.05;8.82;;;15.30;1.00;;;;;;5035307;28;20494;-60
2023/04/22 07:36:40;;;;;;;10.55;7.40;;;15.40;1.00;;;;;;5035123;28;20045;-58
2023/04/22 07:39:06;;;;;;;9.45;8.52;;;15.50;1.00;;;;;;5036004;28;20198;-58
2023/04/22 07:41:32;;;;;;;9.10;8.10;;;15.60;1.00;;;;;;5035175;28;20460;-61
2023/04/22 07:43:58;;;;;;;10.40;7.93;;;15.70;1.00;;;;;;5035317;28;20032;-50
2023/04/22 07:46:30;;;;;;;9.98;8.32;;;15.70;1.00;;;;;;5035106;28;20021;-57
2023/04/22 07:48:56;;;;;;;8.73;7.38;;;15.80;1.00;;;;;;5035043;28;20480;-59
2023/04/22 07:51:22;;;;;;;9.50;7.32;;;15.90;1.00;;;;;;5035122;28;20021;-59
2023/04/22 07:53:48;;;;;;;8.88;7.45;;;15.90;1.00;;;;;;5034981;28;20410;-59
2023/04/22 07:56:13;;;;;;;9.80;7.95;;;16.00;1.00;;;;;;5035314;28;20026;-58
2023/04/22 07:58:39;;;;;;;8.32;7.47;;;16.00;1.00;;;;;;5034134;28;20442;-59
2023/04/22 08:01:05;;;;;;;8.77;8.00;;;16.00;1.00;;;;;;5034984;28;20356;-59
2023/04/22 08:03:30;;;;;;;8.68;7.75;;;16.00;1.00;;;;;;5034879;28;20030;-58
2023/04/22 08:05:57;;;;;;;11.23;8.43;;;16.00;1.00;;;;;;5034780;28;20414;-59
2023/04/22 08:08:24;;;;;;;9.80;8.90;;;16.00;1.00;;;;;;5034734;28;20029;-59
2023/04/22 08:10:49;;;;;;;10.57;8.35;;;16.00;1.00;;;;;;5034916;28;20022;-59
2023/04/22 08:13:15;;;;;;;9.07;7.63;;;16.00;1.00;;;;;;5033383;28;20525;-59
2023/04/22 08:15:41;;;;;;;9.73;7.85;;;16.10;1.00;;;;;;5034525;28;20387;-59
2023/04/22 08:18:06;;;;;;;11.60;7.88;;;16.10;1.00;;;;;;5034719;28;20033;-58
2023/04/22 08:20:34;;;;;;;8.80;7.65;;;16.20;1.00;;;;;;5021635;28;20041;-59
2023/04/22 08:23:00;;;;;;;11.82;9.80;;;16.20;1.00;;;;;;5021054;28;20022;-59
2023/04/22 08:25:26;;;;;;;9.55;8.27;;;16.20;1.00;;;;;;5034391;28;20516;-59
2023/04/22 08:27:52;;;;;;;9.85;7.85;;;16.20;1.00;;;;;;5034642;28;20422;-58
2023/04/22 08:30:18;;;;;;;12.27;8.25;;;16.20;1.00;;;;;;5034648;28;20037;-59
2023/04/22 08:32:44;;;;;;;10.02;9.02;;;16.10;1.00;;;;;;5034406;28;20104;-59
2023/04/22 08:35:10;;;;;;;10.20;8.73;;;16.10;1.00;;;;;;5032800;28;20051;-59
2023/04/22 08:37:36;;;;;;;9.13;8.18;;;16.20;1.00;;;;;;5031756;28;20033;-59
2023/04/22 08:40:03;;;;;;;9.70;8.57;;;16.20;1.00;;;;;;5034476;28;20099;-56
2023/04/22 08:42:29;;;;;;;9.52;8.63;;;16.20;1.00;;;;;;5034195;28;20066;-58
2023/04/22 08:44:56;;;;;;;10.30;8.02;;;16.30;1.00;;;;;;5034068;28;20060;-59
2023/04/22 08:47:23;;;;;;;8.88;7.97;;;16.30;1.00;;;;;;5034261;28;20033;-58
2023/04/22 08:49:55;;;;;;;12.75;9.10;;;16.40;1.00;;;;;;5033926;28;20059;-58
2023/04/22 08:52:21;;;;;;;13.07;8.82;;;16.30;1.00;;;;;;5032673;28;20163;-59
2023/04/22 08:54:46;;;;;;;11.15;9.75;;;16.30;1.00;;;;;;5045485;28;20112;-59
2023/04/22 08:57:13;;;;;;;12.10;9.57;;;16.30;1.00;;;;;;5035923;28;20029;-57
2023/04/22 08:59:40;;;;;;;11.32;9.75;;;16.30;1.00;;;;;;5034079;28;20055;-58
2023/04/22 09:02:12;;;;;;;10.50;8.30;;;16.30;1.00;;;;;;5032439;28;20525;-58
2023/04/22 09:04:39;;;;;;;11.50;9.50;;;16.40;1.00;;;;;;5032492;28;20017;-59
2023/04/22 09:07:06;;;;;;;9.75;8.75;;;16.40;1.00;;;;;;5033529;28;20033;-58
2023/04/22 09:09:32;;;;;;;9.88;8.88;;;16.50;1.00;;;;;;5033595;28;20029;-58
2023/04/22 09:11:58;;;;;;;11.70;9.80;;;16.50;1.00;;;;;;5033635;28;20087;-58
2023/04/22 09:14:25;;;;;;;9.77;8.77;;;16.60;1.00;;;;;;5033767;28;20021;-59
2023/04/22 09:16:51;;;;;;;11.38;9.27;;;16.70;1.00;;;;;;5033832;28;20032;-58
2023/04/22 09:19:16;;;;;;;10.55;8.13;;;16.70;1.00;;;;;;5033588;28;20025;-59
2023/04/22 09:21:42;;;;;;;9.63;8.73;;;16.80;1.00;;;;;;5033417;28;20025;-58
2023/04/22 09:24:10;;;;;;;9.23;8.32;;;17.00;1.00;;;;;;5032987;28;20021;-58
2023/04/22 09:26:41;;;;;;;10.25;8.20;;;17.20;1.00;;;;;;5033447;28;20030;-58
2023/04/22 09:29:08;;;;;;;12.68;8.85;;;17.30;1.00;;;;;;5031351;28;20052;-59
2023/04/22 09:31:36;;;;;;;8.93;8.02;;;17.40;1.00;;;;;;5033202;28;20018;-59
2023/04/22 09:34:03;;;;;;;9.35;8.32;;;17.50;1.00;;;;;;5033106;28;20083;-59
2023/04/22 09:36:29;;;;;;;9.30;8.13;;;17.50;1.00;;;;;;5032896;28;20060;-56
2023/04/22 09:38:58;;;;;;;8.55;7.43;;;17.50;1.00;;;;;;5044302;28;20025;-57
2023/04/22 09:41:29;;;;;;;7.50;6.30;;;17.60;1.00;;;;;;5035410;28;20041;-58
2023/04/22 09:43:59;;;;;;;9.68;8.35;;;17.60;1.00;;;;;;5031622;28;20022;-59
2023/04/22 09:46:26;;;;;;;9.20;6.97;;;17.70;1.00;;;;;;5032986;28;20075;-59
2023/04/22 09:48:55;;;;;;;7.97;7.28;;;17.70;1.00;;;;;;5023764;28;20095;-59
2023/04/22 09:51:21;;;;;;;9.82;7.95;;;17.70;1.00;;;;;;5028794;28;20044;-59
2023/04/22 09:54:09;;;;;;;9.18;8.23;;;17.70;1.00;;;;;;5032798;28;20494;-59
2023/04/22 09:56:49;;;;;;;9.93;8.93;;;17.60;1.00;;;;;;5032805;28;20506;-58
2023/04/22 09:59:22;;;;;;;10.45;9.18;;;17.60;1.00;;;;;;5020168;28;20029;-59
2023/04/22 10:01:50;;;;;;;15.07;11.20;;;17.70;1.00;;;;;;5032945;28;20021;-59
2023/04/22 10:04:19;;;;;;;11.48;9.10;;;17.70;1.00;;;;;;5032787;28;20033;-59
2023/04/22 10:06:49;;;;;;;8.88;8.05;;;17.80;1.00;;;;;;5031584;28;20561;-56
2023/04/22 10:09:19;;;;;;;11.50;8.27;;;17.80;1.00;;;;;;5032959;28;20041;-58
2023/04/22 10:11:45;;;;;;;8.23;7.43;;;17.80;1.00;;;;;;5026486;28;20030;-58
2023/04/22 10:14:13;;;;;;;10.82;8.02;;;18.00;1.00;;;;;;5032673;28;20079;-59
2023/04/22 10:16:41;;;;;;;9.25;8.35;;;18.10;1.00;;;;;;5032974;28;20017;-59
2023/04/22 10:19:12;;;;;;;9.65;7.88;;;18.10;1.00;;;;;;5032656;28;20040;-57
2023/04/22 10:25:21;;;;;;;9.93;8.90;;;18.30;1.00;;;;;;5027054;28;20453;-60
2023/04/22 10:27:53;;;;;;;10.13;9.13;;;18.50;1.00;;;;;;5025794;28;20041;-57
2023/04/22 10:30:29;;;;;;;12.15;8.70;;;18.60;1.00;;;;;;5036728;28;20056;-59
2023/04/22 10:32:55;;;;;;;9.73;8.80;;;18.70;1.00;;;;;;5036499;28;20491;-59
2023/04/22 10:35:28;;;;;;;10.88;9.05;;;18.60;1.00;;;;;;5036266;28;20049;-57
2023/04/22 10:37:54;;;;;;;10.35;8.43;;;18.60;1.00;;;;;;5036294;28;20434;-57
2023/04/22 10:40:21;;;;;;;10.23;9.13;;;18.60;1.00;;;;;;5036598;28;20017;-55
2023/04/22 10:42:51;;;;;;;9.82;8.18;;;18.70;1.00;;;;;;5036071;28;20053;-56
2023/04/22 10:45:22;;;;;;;8.57;7.70;;;18.90;1.00;;;;;;5036387;28;20557;-57
2023/04/22 10:47:48;;;;;;;8.45;7.40;;;19.00;1.00;;;;;;5036378;28;20045;-56
2023/04/22 10:50:22;;;;;;;8.43;7.63;;;19.10;1.00;;;;;;5036195;28;20392;-56
2023/04/22 10:52:53;;;;;;;;;;;19.20;1.00;;;;;;5036558;28;20029;-57
2023/04/22 10:55:20;;;;;;;10.32;8.00;;;19.30;1.00;;;;;;5032296;28;19905;-58
2023/04/22 10:57:47;;;;;;;9.98;7.90;;;19.40;1.00;;;;;;5036398;28;20055;-59
2023/04/22 11:00:31;;;;;;;9.70;8.77;;;19.50;1.00;;;;;;5028988;28;20048;-58
2023/04/22 11:03:09;;;;;;;11.30;9.13;;;19.60;1.00;;;;;;5036091;28;20030;-59
2023/04/22 11:05:36;;;;;;;9.63;8.73;;;19.60;1.00;;;;;;5035946;28;20108;-57
2023/04/22 11:08:04;;;;;;;10.02;9.02;;;19.70;1.00;;;;;;5035912;28;20034;-58
2023/04/22 11:10:42;;;;;;;9.77;8.10;;;19.80;1.00;;;;;;5035754;28;20112;-58
2023/04/22 11:13:28;;;;;;;8.90;8.05;;;19.90;1.00;;;;;;5036045;28;20022;-59
2023/04/22 11:15:54;;;;;;;10.52;9.52;;;20.20;1.00;;;;;;5039554;28;20402;-56
2023/04/22 11:18:24;;;;;;;11.85;9.63;;;20.30;1.00;;;;;;5045865;28;20029;-57
2023/04/22 11:20:52;;;;;;;11.05;9.95;;;20.30;1.00;;;;;;5035506;28;20037;-56
2023/04/22 11:23:26;;;;;;;9.75;8.65;;;20.50;1.00;;;;;;5035532;28;20022;-58
2023/04/22 11:25:56;;;;;;;;;;;20.60;1.00;;;;;;5035282;28;20021;-58
2023/04/22 11:28:22;;;;;;;10.40;9.45;;;20.70;1.00;;;;;;5034925;28;19952;-58
2023/04/22 11:30:48;;;;;;;10.80;9.15;;;21.10;1.00;;;;;;5035426;28;20472;-58
2023/04/22 11:33:18;;;;;;;9.05;8.13;;;21.20;1.00;;;;;;5034402;28;20026;-57
2023/04/22 11:35:44;;;;;;;10.85;9.85;;;21.40;1.00;;;;;;5035095;28;20041;-58
2023/04/22 11:38:09;;;;;;;11.45;9.43;;;21.30;1.00;;;;;;5035322;28;20041;-57
2023/04/22 11:40:38;;;;;;;10.27;8.45;;;21.40;1.00;;;;;;5033836;28;20028;-57
2023/04/22 11:43:06;;;;;;;10.00;8.88;;;21.70;1.00;;;;;;5035206;28;20022;-58
2023/04/22 11:45:33;;;;;;;9.07;8.18;;;21.90;1.00;;;;;;5035030;28;20021;-56
2023/04/22 11:48:00;;;;;;;10.07;9.10;;;22.10;1.00;;;;;;5035067;28;20502;-57
2023/04/22 11:50:32;;;;;;;9.30;8.50;;;22.00;1.00;;;;;;5023027;28;20017;-55
2023/04/22 11:53:03;;;;;;;9.15;8.25;;;21.80;1.00;;;;;;5035386;28;20036;-57
2023/04/22 11:55:34;;;;;;;9.85;7.47;;;21.80;1.00;;;;;;5034819;28;20021;-58
2023/04/22 11:58:07;;;;;;;9.40;7.72;;;22.20;1.00;;;;;;5035238;28;20356;-56
2023/04/22 12:00:36;;;;;;;8.77;7.95;;;24.50;1.00;;;;;;5034806;28;20024;-55
2023/04/22 12:03:25;;;;;;;10.93;8.88;;;28.70;1.00;;;;;;5034855;28;20136;-57
2023/04/22 12:05:56;;;;;;;7.50;5.95;;;31.20;1.00;;;;;;5027691;28;20041;-58
2023/04/22 12:08:25;;;;;;;8.40;7.57;;;34.10;1.00;;;;;;5026720;28;20038;-58
2023/04/22 12:10:52;;;;;;;8.85;8.05;;;35.50;1.00;;;;;;5034604;28;20017;-58
2023/04/22 12:13:25;;;;;;;9.55;8.75;;;35.50;1.00;;;;;;5033825;28;20044;-58
2023/04/22 12:15:58;;;;;;;8.05;7.45;;;35.10;1.00;;;;;;5034829;28;20093;-58
2023/04/22 12:18:51;;;;;;;8.55;7.85;;;35.40;1.00;;;;;;5035004;28;20068;-58
2023/04/22 12:21:22;;;;;;;8.35;7.53;;;35.20;1.00;;;;;;5016420;28;20552;-59
2023/04/22 12:23:59;;;;;;;7.65;6.97;;;35.40;1.00;;;;;;5034701;28;20029;-57
2023/04/22 12:26:26;;;;;;;8.88;6.90;;;35.60;1.00;;;;;;5021096;28;20037;-59
2023/04/22 12:28:53;;;;;;;7.45;6.80;;;36.50;1.00;;;;;;5033076;28;20488;-58
2023/04/22 12:31:19;;;;;;;6.72;5.97;;;37.00;99.90;;;;;;5034283;28;20018;-59
2023/04/22 12:33:45;;;;;;;6.82;6.22;;;35.30;1.00;;;;;;5033088;28;20034;-59
2023/04/22 12:36:11;;;;;;;5.78;5.38;;;34.70;1.00;;;;;;5034135;28;20050;-59
2023/04/22 12:38:37;;;;;;;6.78;6.28;;;35.50;99.90;;;;;;5034237;28;20036;-59
2023/04/22 12:41:04;;;;;;;6.22;5.80;;;37.00;99.90;;;;;;5029467;28;20068;-58
2023/04/22 12:43:35;;;;;;;5.70;5.25;;;33.00;1.00;;;;;;5034596;28;20037;-59
2023/04/22 12:46:02;;;;;;;5.53;5.10;;;31.10;1.00;;;;;;5034024;28;20040;-58
2023/04/22 12:48:28;;;;;;;4.55;4.10;;;29.40;1.00;;;;;;5033614;28;20033;-58
2023/04/22 12:50:54;;;;;;;3.45;3.25;;;28.10;1.00;;;;;;5033999;28;20067;-55
2023/04/22 12:53:20;;;;;;;4.70;3.53;;;27.10;1.00;;;;;;5033821;28;20053;-56
2023/04/22 12:55:47;;;;;;;3.97;3.67;;;27.10;1.00;;;;;;5019892;28;20029;-57
2023/04/22 12:58:13;;;;;;;5.30;4.20;;;27.70;1.00;;;;;;5034101;28;20124;-56